Hauptseite
METAR-TAF:

METAR-TAF

Flughäfen :

Flughafen Forlì

Forlì, Italien

Breite: 44-12N, Länge: 012-04E, Höhe: 27 m

Beobachtung

Neuester Wetterbericht von vor 47 Minuten, um 09:50 UTC
Wind 3 kt aus unterschiedlichen Richtungen
Temperatur 29°C
Luftfeuchtigkeit 45%
Luftdruck 1014 hPa
Sichtweite 10 km oder mehr
keine Wolken unter 1500 m und keine Kumulonimbus oder Gewitterwolken

METAR: LIPK 180950Z VRB03KT CAVOK 29/16 Q1014

Zeit: 12:37 (10:37 UTC)


TAF: fehlend

Wetterbeobachtungen und Prognosen von mehr als 4000 Flughäfen (METAR und TAF Bericht).

Die verfügbaren Stationen werden durch gelbe und rote Markierungen auf der Karte dargestellt.

Führen Sie die Maus auf sie, um den Namen der Station zu sehen.

Darauf klicken, um die Beobachtung von Wetterbeobachtungen und Prognosen zu sehen.

Um die Karte zu ändern : klicken Sie auf den grünen Tasten mit einem schwarzen Kreuz Zum Vergrößern, auf den grünen Button mit einem Gedankenstrich zu verkleinern, oder auf die grünen Pfeile für benachbarte Karten.


METAR-TAF: